createdAt,value
2023-03-19T00:00:50.753Z, 45.24
2023-03-19T00:01:50.889Z, 45.27
2023-03-19T00:02:50.955Z, 45.26
2023-03-19T00:03:50.880Z, 45.21
2023-03-19T00:04:50.838Z, 45.14
2023-03-19T00:05:50.825Z, 45.14
2023-03-19T00:06:50.818Z, 45.08
2023-03-19T00:07:50.845Z, 45.09
2023-03-19T00:08:50.847Z, 44.97
2023-03-19T00:09:50.850Z, 45.01
2023-03-19T00:10:50.865Z, 45.07
2023-03-19T00:11:50.851Z, 45.04
2023-03-19T00:12:50.874Z, 44.99
2023-03-19T00:13:50.883Z, 44.97
2023-03-19T00:14:50.896Z, 44.92
2023-03-19T00:15:50.906Z, 44.91
2023-03-19T00:16:51.035Z, 44.86
2023-03-19T00:17:50.968Z, 44.81
2023-03-19T00:18:50.951Z, 44.73
2023-03-19T00:19:50.972Z, 44.74
2023-03-19T00:20:50.985Z, 44.74
2023-03-19T00:21:51.066Z, 44.76
2023-03-19T00:22:51.036Z, 44.76
2023-03-19T00:23:51.044Z, 44.73
2023-03-19T00:24:51.049Z, 44.62
2023-03-19T00:25:51.038Z, 44.62
2023-03-19T00:26:51.062Z, 44.63
2023-03-19T00:27:51.063Z, 44.63
2023-03-19T00:28:51.128Z, 44.65
2023-03-19T00:29:51.118Z, 44.62
2023-03-19T00:30:51.195Z, 44.60
2023-03-19T00:31:51.158Z, 44.53
2023-03-19T00:32:51.198Z, 44.51
2023-03-19T00:33:51.169Z, 44.50
2023-03-19T00:34:51.211Z, 44.50
2023-03-19T00:35:51.196Z, 44.48
2023-03-19T00:36:51.171Z, 44.35
2023-03-19T00:37:51.180Z, 44.36
2023-03-19T00:38:51.190Z, 44.39
2023-03-19T00:39:51.278Z, 44.32
2023-03-19T00:40:51.228Z, 44.31
2023-03-19T00:41:51.265Z, 44.29
2023-03-19T00:42:51.238Z, 44.22
2023-03-19T00:43:51.318Z, 44.22
2023-03-19T00:44:51.290Z, 44.19
2023-03-19T00:45:51.339Z, 44.19
2023-03-19T00:46:51.311Z, 44.14
2023-03-19T00:47:51.308Z, 44.12
2023-03-19T00:48:51.310Z, 44.06
2023-03-19T00:49:51.336Z, 44.06
2023-03-19T00:50:51.364Z, 44.07
2023-03-19T00:51:51.437Z, 44.04
2023-03-19T00:52:51.380Z, 44.06
2023-03-19T00:53:51.453Z, 44.04
2023-03-19T00:54:51.446Z, 43.99
2023-03-19T00:55:51.450Z, 43.96
2023-03-19T00:56:51.438Z, 43.94
2023-03-19T00:57:51.456Z, 43.92
2023-03-19T00:58:51.476Z, 43.96
2023-03-19T00:59:51.463Z, 43.95
2023-03-19T01:00:51.540Z, 43.91
2023-03-19T01:01:51.547Z, 43.91
2023-03-19T01:02:51.556Z, 43.87
2023-03-19T01:03:51.517Z, 43.81
2023-03-19T01:04:51.536Z, 43.80
2023-03-19T01:05:51.562Z, 43.84
2023-03-19T01:06:51.604Z, 43.81
2023-03-19T01:07:51.558Z, 43.63
2023-03-19T01:08:51.582Z, 43.60
2023-03-19T01:09:51.633Z, 43.66
2023-03-19T01:10:51.582Z, 43.61
2023-03-19T01:11:51.653Z, 43.60
2023-03-19T01:12:51.633Z, 43.68
2023-03-19T01:13:51.639Z, 43.61
2023-03-19T01:14:51.640Z, 43.64
2023-03-19T01:15:51.645Z, 43.63
2023-03-19T01:16:51.718Z, 43.58
2023-03-19T01:17:51.723Z, 43.60
2023-03-19T01:18:51.722Z, 43.61
2023-03-19T01:19:51.702Z, 43.59
2023-03-19T01:20:51.697Z, 43.58
2023-03-19T01:21:51.717Z, 43.58
2023-03-19T01:22:51.750Z, 43.53
2023-03-19T01:23:51.811Z, 43.46
2023-03-19T01:24:51.780Z, 43.47
2023-03-19T01:25:51.847Z, 43.40
2023-03-19T01:26:51.816Z, 43.33
2023-03-19T01:27:51.867Z, 43.27
2023-03-19T01:28:51.832Z, 43.26
2023-03-19T01:29:51.841Z, 43.30
2023-03-19T01:30:51.883Z, 43.31
2023-03-19T01:31:51.827Z, 43.33
2023-03-19T01:32:51.855Z, 43.28
2023-03-19T01:33:51.853Z, 43.25
2023-03-19T01:34:51.907Z, 43.22
2023-03-19T01:35:51.913Z, 43.21
2023-03-19T01:36:51.976Z, 43.15
2023-03-19T01:37:51.941Z, 43.13
2023-03-19T01:38:51.959Z, 43.11
2023-03-19T01:39:51.934Z, 43.12
2023-03-19T01:40:51.945Z, 43.11
2023-03-19T01:41:51.954Z, 43.13
2023-03-19T01:42:51.942Z, 43.11
2023-03-19T01:43:51.949Z, 43.06
2023-03-19T01:44:51.956Z, 43.10
2023-03-19T01:45:52.058Z, 43.08
2023-03-19T01:46:52.053Z, 43.08
2023-03-19T01:47:52.026Z, 42.94
2023-03-19T01:48:52.124Z, 42.92
2023-03-19T01:49:52.084Z, 42.94
2023-03-19T01:50:52.041Z, 42.92
2023-03-19T01:51:52.043Z, 42.87
2023-03-19T01:52:52.053Z, 42.85
2023-03-19T01:53:52.053Z, 42.86
2023-03-19T01:54:52.178Z, 42.75
2023-03-19T01:55:52.086Z, 42.78
2023-03-19T01:56:52.144Z, 42.71
2023-03-19T01:57:52.120Z, 42.73
2023-03-19T01:58:52.176Z, 42.80
2023-03-19T01:59:52.178Z, 42.82
2023-03-19T02:00:52.168Z, 42.80
2023-03-19T02:01:52.255Z, 42.78
2023-03-19T02:02:52.165Z, 42.77
2023-03-19T02:03:52.208Z, 42.73
2023-03-19T02:04:52.272Z, 42.71
2023-03-19T02:05:52.199Z, 42.69
2023-03-19T02:06:52.230Z, 42.67
2023-03-19T02:07:52.220Z, 42.66
2023-03-19T02:08:52.290Z, 42.66
2023-03-19T02:09:52.238Z, 42.66
2023-03-19T02:10:52.292Z, 42.58
2023-03-19T02:11:52.264Z, 42.57
2023-03-19T02:12:52.322Z, 42.58
2023-03-19T02:13:52.266Z, 42.57
2023-03-19T02:14:52.261Z, 42.53
2023-03-19T02:15:52.319Z, 42.49
2023-03-19T02:16:52.282Z, 42.44
2023-03-19T02:17:52.280Z, 42.45
2023-03-19T02:18:52.296Z, 42.45
2023-03-19T02:19:52.300Z, 42.45
2023-03-19T02:20:52.314Z, 42.40
2023-03-19T02:21:52.303Z, 42.34
2023-03-19T02:22:52.311Z, 42.26
2023-03-19T02:23:52.340Z, 42.26
2023-03-19T02:24:52.369Z, 42.23
2023-03-19T02:25:52.476Z, 42.20
2023-03-19T02:26:52.412Z, 42.16
2023-03-19T02:27:52.440Z, 42.09
2023-03-19T02:28:52.434Z, 42.14
2023-03-19T02:29:52.462Z, 42.19
2023-03-19T02:30:52.431Z, 42.20
2023-03-19T02:31:52.435Z, 42.20
2023-03-19T02:32:52.512Z, 42.13
2023-03-19T02:33:52.462Z, 42.09
2023-03-19T02:34:52.464Z, 42.07
2023-03-19T02:35:52.549Z, 42.08
2023-03-19T02:36:52.463Z, 42.01
2023-03-19T02:37:52.469Z, 41.97
2023-03-19T02:38:52.473Z, 41.97
2023-03-19T02:39:52.474Z, 41.93
2023-03-19T02:40:52.481Z, 41.96
2023-03-19T02:41:52.564Z, 41.92
2023-03-19T02:42:52.528Z, 41.90
2023-03-19T02:43:52.598Z, 41.91
2023-03-19T02:44:52.565Z, 41.90
2023-03-19T02:45:52.585Z, 41.87
2023-03-19T02:46:52.674Z, 41.90
2023-03-19T02:47:52.615Z, 41.88
2023-03-19T02:48:52.639Z, 41.87
2023-03-19T02:49:52.597Z, 41.90
2023-03-19T02:50:52.613Z, 41.85
2023-03-19T02:51:52.621Z, 41.77
2023-03-19T02:52:52.684Z, 41.77
2023-03-19T02:53:52.634Z, 41.77
2023-03-19T02:54:52.726Z, 41.75
2023-03-19T02:55:52.693Z, 41.74
2023-03-19T02:56:52.700Z, 41.73
2023-03-19T02:57:52.680Z, 41.75
2023-03-19T02:58:52.689Z, 41.67
2023-03-19T02:59:52.704Z, 41.69
2023-03-19T03:00:52.787Z, 41.73
2023-03-19T03:01:52.992Z, 41.62
2023-03-19T03:02:52.790Z, 41.58
2023-03-19T03:03:52.828Z, 41.54
2023-03-19T03:04:52.800Z, 41.54
2023-03-19T03:05:52.808Z, 41.57
2023-03-19T03:06:52.804Z, 41.55
2023-03-19T03:07:52.807Z, 41.53
2023-03-19T03:08:52.816Z, 41.50
2023-03-19T03:09:52.835Z, 41.46
2023-03-19T03:10:52.886Z, 41.47
2023-03-19T03:11:52.862Z, 41.45
2023-03-19T03:12:52.939Z, 41.44
2023-03-19T03:13:52.902Z, 41.48
2023-03-19T03:14:52.938Z, 41.43
2023-03-19T03:15:52.982Z, 41.39
2023-03-19T03:16:52.953Z, 41.38
2023-03-19T03:17:53.007Z, 41.33
2023-03-19T03:18:52.997Z, 41.37
2023-03-19T03:19:53.031Z, 41.38
2023-03-19T03:20:53.002Z, 41.31
2023-03-19T03:21:53.071Z, 41.32
2023-03-19T03:22:53.070Z, 41.37
2023-03-19T03:23:53.044Z, 41.36
2023-03-19T03:24:53.044Z, 41.31
2023-03-19T03:25:53.117Z, 41.30
2023-03-19T03:26:53.128Z, 41.26
2023-03-19T03:27:53.092Z, 41.27
2023-03-19T03:28:53.177Z, 41.24
2023-03-19T03:29:53.135Z, 41.21
2023-03-19T03:30:53.178Z, 41.21
2023-03-19T03:31:53.240Z, 41.25
2023-03-19T03:32:53.255Z, 41.19
2023-03-19T03:33:53.153Z, 41.13
2023-03-19T03:34:53.221Z, 41.09
2023-03-19T03:35:53.243Z, 41.06
2023-03-19T03:36:53.190Z, 41.06
2023-03-19T03:37:53.179Z, 41.04
2023-03-19T03:38:53.247Z, 41.03
2023-03-19T03:39:53.234Z, 41.00
2023-03-19T03:40:53.239Z, 41.03
2023-03-19T03:41:53.264Z, 41.07
2023-03-19T03:42:53.244Z, 41.06
2023-03-19T03:43:53.344Z, 41.04
2023-03-19T03:44:53.328Z, 41.01
2023-03-19T03:45:53.420Z, 40.95
2023-03-19T03:46:53.329Z, 41.02
2023-03-19T03:47:53.341Z, 40.99
2023-03-19T03:48:53.358Z, 40.96
2023-03-19T03:49:53.371Z, 40.95
2023-03-19T03:50:53.445Z, 40.98
2023-03-19T03:51:53.409Z, 40.92
2023-03-19T03:52:53.460Z, 40.86
2023-03-19T03:53:53.452Z, 40.86
2023-03-19T03:54:53.434Z, 40.80
2023-03-19T03:55:53.462Z, 40.79
2023-03-19T03:56:53.442Z, 40.76
2023-03-19T03:57:53.450Z, 40.77
2023-03-19T03:58:53.460Z, 40.77
2023-03-19T03:59:53.525Z, 40.73
2023-03-19T04:00:53.488Z, 40.69
2023-03-19T04:01:53.586Z, 40.71
2023-03-19T04:02:53.599Z, 40.74
2023-03-19T04:03:53.532Z, 40.74
2023-03-19T04:04:53.552Z, 40.68
2023-03-19T04:05:53.534Z, 40.61
2023-03-19T04:06:53.623Z, 40.59
2023-03-19T04:07:53.609Z, 40.58
2023-03-19T04:08:53.646Z, 40.55
2023-03-19T04:09:53.618Z, 40.52
2023-03-19T04:10:53.625Z, 40.54
2023-03-19T04:11:53.653Z, 40.57
2023-03-19T04:12:53.650Z, 40.55
2023-03-19T04:13:53.648Z, 40.54
2023-03-19T04:14:53.668Z, 40.53
2023-03-19T04:15:53.796Z, 40.48
2023-03-19T04:16:53.744Z, 40.43
2023-03-19T04:17:53.765Z, 40.44
2023-03-19T04:18:53.755Z, 40.41
2023-03-19T04:19:53.746Z, 40.42
2023-03-19T04:20:53.763Z, 40.45
2023-03-19T04:21:53.740Z, 40.48
2023-03-19T04:22:53.754Z, 40.44
2023-03-19T04:23:53.782Z, 40.42
2023-03-19T04:24:53.843Z, 40.39
2023-03-19T04:25:53.811Z, 40.39
2023-03-19T04:26:53.870Z, 40.39
2023-03-19T04:27:53.837Z, 40.37
2023-03-19T04:28:53.851Z, 40.37
2023-03-19T04:29:53.837Z, 40.33
2023-03-19T04:30:53.868Z, 40.33
2023-03-19T04:31:53.864Z, 41.65
2023-03-19T04:32:53.928Z, 42.57
2023-03-19T04:33:53.885Z, 42.97
2023-03-19T04:34:53.904Z, 43.13
2023-03-19T04:35:54.062Z, 43.21
2023-03-19T04:36:53.942Z, 43.27
2023-03-19T04:37:54.018Z, 43.29
2023-03-19T04:38:54.000Z, 43.30
2023-03-19T04:39:54.042Z, 43.34
2023-03-19T04:40:54.002Z, 43.41
2023-03-19T04:41:54.099Z, 43.42
2023-03-19T04:42:54.057Z, 43.48
2023-03-19T04:43:54.092Z, 43.53
2023-03-19T04:44:54.057Z, 43.58
2023-03-19T04:45:54.077Z, 43.59
2023-03-19T04:46:54.071Z, 43.54
2023-03-19T04:47:54.104Z, 43.56
2023-03-19T04:48:54.195Z, 43.55
2023-03-19T04:49:54.126Z, 43.52
2023-03-19T04:50:54.191Z, 43.53
2023-03-19T04:51:54.136Z, 43.49
2023-03-19T04:52:54.206Z, 43.46
2023-03-19T04:53:54.195Z, 43.46
2023-03-19T04:54:54.182Z, 43.40
2023-03-19T04:55:54.187Z, 43.38
2023-03-19T04:56:54.233Z, 43.38
2023-03-19T04:57:54.282Z, 43.37
2023-03-19T04:58:54.255Z, 43.34
2023-03-19T04:59:54.256Z, 43.30
2023-03-19T05:00:54.340Z, 43.31
2023-03-19T05:01:54.312Z, 43.25
2023-03-19T05:02:54.342Z, 43.29
2023-03-19T05:03:54.445Z, 43.27
2023-03-19T05:04:54.385Z, 43.25
2023-03-19T05:05:54.366Z, 43.22
2023-03-19T05:06:54.358Z, 43.17
2023-03-19T05:07:54.358Z, 43.16
2023-03-19T05:08:54.375Z, 43.14
2023-03-19T05:09:54.404Z, 43.12
2023-03-19T05:10:54.468Z, 43.08
2023-03-19T05:11:54.480Z, 43.06
2023-03-19T05:12:54.453Z, 43.05
2023-03-19T05:13:54.478Z, 43.02
2023-03-19T05:14:54.463Z, 43.01
2023-03-19T05:15:54.553Z, 42.98
2023-03-19T05:16:54.477Z, 42.99
2023-03-19T05:17:54.488Z, 42.97
2023-03-19T05:18:54.559Z, 42.92
2023-03-19T05:19:54.543Z, 42.91
2023-03-19T05:20:54.560Z, 42.91
2023-03-19T05:21:54.537Z, 42.86
2023-03-19T05:22:54.533Z, 42.85
2023-03-19T05:23:54.542Z, 42.83
2023-03-19T05:24:54.542Z, 42.79
2023-03-19T05:25:54.644Z, 42.80
2023-03-19T05:26:54.632Z, 42.79
2023-03-19T05:27:54.644Z, 42.79
2023-03-19T05:28:54.631Z, 42.78
2023-03-19T05:29:54.646Z, 42.78
2023-03-19T05:30:54.669Z, 42.76
2023-03-19T05:31:54.669Z, 42.72
2023-03-19T05:32:54.835Z, 42.72
2023-03-19T05:33:54.690Z, 42.68
2023-03-19T05:34:54.698Z, 42.66
2023-03-19T05:35:56.397Z, 42.67
2023-03-19T05:36:54.763Z, 42.62
2023-03-19T05:37:54.713Z, 42.61
2023-03-19T05:38:54.819Z, 42.58
2023-03-19T05:39:54.806Z, 42.57
2023-03-19T05:40:54.810Z, 42.55
2023-03-19T05:41:54.771Z, 42.54
2023-03-19T05:42:54.770Z, 42.52
2023-03-19T05:43:54.783Z, 42.51
2023-03-19T05:44:54.790Z, 42.50
2023-03-19T05:45:54.858Z, 42.48
2023-03-19T05:46:54.840Z, 42.46
2023-03-19T05:47:54.835Z, 42.44
2023-03-19T05:48:54.843Z, 42.43
2023-03-19T05:49:54.979Z, 42.41
2023-03-19T05:50:54.929Z, 42.37
2023-03-19T05:51:54.967Z, 42.37
2023-03-19T05:52:54.937Z, 42.35
2023-03-19T05:53:54.993Z, 42.33
2023-03-19T05:54:54.949Z, 42.33
2023-03-19T05:55:55.007Z, 42.32
2023-03-19T05:56:54.989Z, 42.31
2023-03-19T05:57:54.982Z, 42.29
2023-03-19T05:58:54.987Z, 42.26
2023-03-19T05:59:54.997Z, 42.26
2023-03-19T06:00:55.015Z, 42.26
2023-03-19T06:01:55.025Z, 42.30
2023-03-19T06:02:55.204Z, 42.42
2023-03-19T06:03:55.136Z, 42.43
2023-03-19T06:04:55.044Z, 42.47
2023-03-19T06:05:55.050Z, 42.44
2023-03-19T06:06:55.119Z, 42.44
2023-03-19T06:07:55.075Z, 42.42
2023-03-19T06:08:55.150Z, 42.38
2023-03-19T06:09:55.168Z, 42.37
2023-03-19T06:10:55.168Z, 42.36
2023-03-19T06:11:55.153Z, 42.35
2023-03-19T06:12:55.203Z, 42.34
2023-03-19T06:13:55.177Z, 42.29
2023-03-19T06:14:55.238Z, 42.27
2023-03-19T06:15:55.235Z, 42.24
2023-03-19T06:16:55.288Z, 42.01
2023-03-19T06:17:55.273Z, 41.70
2023-03-19T06:18:55.326Z, 41.42
2023-03-19T06:19:55.303Z, 41.16
2023-03-19T06:20:55.300Z, 41.02
2023-03-19T06:21:55.303Z, 40.87
2023-03-19T06:22:55.320Z, 40.78
2023-03-19T06:23:55.380Z, 40.70
2023-03-19T06:24:55.357Z, 40.62
2023-03-19T06:25:55.406Z, 40.56
2023-03-19T06:26:55.384Z, 40.58
2023-03-19T06:27:55.446Z, 40.54
2023-03-19T06:28:55.410Z, 40.50
2023-03-19T06:29:55.475Z, 40.42
2023-03-19T06:30:55.450Z, 40.36
2023-03-19T06:31:57.976Z, 40.31
2023-03-19T06:32:55.558Z, 40.28
2023-03-19T06:33:55.452Z, 40.24
2023-03-19T06:34:55.465Z, 40.23
2023-03-19T06:35:55.495Z, 40.21
2023-03-19T06:36:55.485Z, 40.15
2023-03-19T06:37:55.542Z, 40.10
2023-03-19T06:38:55.525Z, 40.05
2023-03-19T06:39:55.536Z, 40.06
2023-03-19T06:40:55.539Z, 40.04
2023-03-19T06:41:55.604Z, 39.98
2023-03-19T06:42:55.623Z, 39.94
2023-03-19T06:43:55.603Z, 39.94
2023-03-19T06:44:55.649Z, 39.90
2023-03-19T06:45:55.834Z, 39.91
2023-03-19T06:46:55.687Z, 39.85
2023-03-19T06:47:55.647Z, 39.83
2023-03-19T06:48:55.643Z, 39.79
2023-03-19T06:49:55.648Z, 39.82
2023-03-19T06:50:55.664Z, 39.78
2023-03-19T06:51:55.682Z, 39.74
2023-03-19T06:52:55.696Z, 39.74
2023-03-19T06:53:55.757Z, 39.73
2023-03-19T06:54:55.713Z, 39.73
2023-03-19T06:55:55.783Z, 39.71
2023-03-19T06:56:55.762Z, 39.66
2023-03-19T06:57:55.800Z, 39.64
2023-03-19T06:58:55.782Z, 39.59
2023-03-19T06:59:55.793Z, 39.59
2023-03-19T07:00:55.865Z, 39.61
2023-03-19T07:01:55.882Z, 39.68
2023-03-19T07:02:55.882Z, 39.65
2023-03-19T07:03:55.966Z, 39.61
2023-03-19T07:04:55.868Z, 39.59
2023-03-19T07:05:55.854Z, 39.60
2023-03-19T07:06:55.900Z, 39.59
2023-03-19T07:07:55.865Z, 39.56
2023-03-19T07:08:55.903Z, 39.54
2023-03-19T07:09:55.888Z, 39.50
2023-03-19T07:10:55.892Z, 39.47
2023-03-19T07:11:55.889Z, 39.71
2023-03-19T07:12:55.909Z, 42.35
2023-03-19T07:13:56.005Z, 46.91
2023-03-19T07:14:55.965Z, 51.39
2023-03-19T07:15:56.007Z, 56.08
2023-03-19T07:16:56.013Z, 61.15
2023-03-19T07:17:56.004Z, 67.06
2023-03-19T07:18:56.003Z, 54.66
2023-03-19T07:19:55.994Z, 53.30
2023-03-19T07:20:56.108Z, 54.47
2023-03-19T07:21:56.048Z, 56.26
2023-03-19T07:22:56.081Z, 59.57
2023-03-19T07:23:56.061Z, 69.48
2023-03-19T07:24:56.109Z, 59.95
2023-03-19T07:25:56.088Z, 54.22
2023-03-19T07:26:56.109Z, 54.81
2023-03-19T07:27:56.253Z, 56.20
2023-03-19T07:28:56.097Z, 58.44
2023-03-19T07:29:56.096Z, 60.05
2023-03-19T07:30:56.181Z, 61.24
2023-03-19T07:31:56.224Z, 61.95
2023-03-19T07:32:56.223Z, 62.61
2023-03-19T07:33:56.153Z, 62.93
2023-03-19T07:34:56.219Z, 63.13
2023-03-19T07:35:56.225Z, 63.24
2023-03-19T07:36:56.213Z, 63.38
2023-03-19T07:37:56.208Z, 63.36
2023-03-19T07:38:56.221Z, 63.35
2023-03-19T07:39:56.218Z, 63.30
2023-03-19T07:41:02.438Z, 63.16
2023-03-19T07:41:56.298Z, 63.07
2023-03-19T07:42:56.266Z, 62.87
2023-03-19T07:43:56.313Z, 62.62
2023-03-19T07:44:56.313Z, 62.57
2023-03-19T07:45:56.349Z, 62.34
2023-03-19T07:46:56.324Z, 62.28
2023-03-19T07:47:56.410Z, 62.15
2023-03-19T07:48:56.384Z, 62.08
2023-03-19T07:49:56.432Z, 61.96
2023-03-19T07:50:56.397Z, 61.77
2023-03-19T07:51:56.405Z, 61.59
2023-03-19T07:52:56.401Z, 61.53
2023-03-19T07:53:56.400Z, 61.36
2023-03-19T07:54:56.425Z, 61.23
2023-03-19T07:55:56.410Z, 61.01
2023-03-19T07:56:56.431Z, 60.87
2023-03-19T07:57:56.437Z, 60.84
2023-03-19T07:58:56.460Z, 60.71
2023-03-19T07:59:56.474Z, 60.51
2023-03-19T08:00:56.478Z, 60.40
2023-03-19T08:01:56.541Z, 60.26
2023-03-19T08:02:56.510Z, 60.18
2023-03-19T08:03:56.526Z, 60.03
2023-03-19T08:04:56.548Z, 59.86
2023-03-19T08:05:56.544Z, 59.78
2023-03-19T08:06:56.635Z, 59.66
2023-03-19T08:07:56.610Z, 59.51
2023-03-19T08:08:56.650Z, 59.42
2023-03-19T08:09:56.634Z, 59.23
2023-03-19T08:10:56.623Z, 59.12
2023-03-19T08:11:56.623Z, 59.03
2023-03-19T08:12:56.632Z, 58.97
2023-03-19T08:13:56.642Z, 58.79
2023-03-19T08:14:56.676Z, 58.69
2023-03-19T08:15:56.670Z, 58.56
2023-03-19T08:16:56.796Z, 58.45
2023-03-19T08:17:56.714Z, 58.36
2023-03-19T08:18:56.695Z, 58.31
2023-03-19T08:19:56.777Z, 58.16
2023-03-19T08:20:56.742Z, 58.04
2023-03-19T08:21:56.748Z, 57.98
2023-03-19T08:22:56.778Z, 57.87
2023-03-19T08:23:56.746Z, 57.75
2023-03-19T08:24:56.809Z, 57.73
2023-03-19T08:25:56.774Z, 57.70
2023-03-19T08:26:56.872Z, 57.58
2023-03-19T08:27:56.839Z, 57.52
2023-03-19T08:28:56.858Z, 57.36
2023-03-19T08:29:56.833Z, 57.22
2023-03-19T08:30:56.975Z, 57.20
2023-03-19T08:31:56.883Z, 57.04
2023-03-19T08:32:57.020Z, 56.97
2023-03-19T08:33:56.938Z, 56.86
2023-03-19T08:34:56.929Z, 56.80
2023-03-19T08:35:56.946Z, 56.78
2023-03-19T08:36:56.955Z, 56.76
2023-03-19T08:37:56.973Z, 56.65
2023-03-19T08:38:56.939Z, 56.53
2023-03-19T08:39:56.972Z, 56.43
2023-03-19T08:40:56.950Z, 56.43
2023-03-19T08:41:56.979Z, 56.22
2023-03-19T08:42:56.969Z, 56.25
2023-03-19T08:43:57.078Z, 56.15
2023-03-19T08:44:57.041Z, 56.12
2023-03-19T08:45:57.073Z, 56.02
2023-03-19T08:46:57.037Z, 55.99
2023-03-19T08:47:57.059Z, 55.96
2023-03-19T08:48:57.079Z, 55.80
2023-03-19T08:49:57.153Z, 55.74
2023-03-19T08:50:57.153Z, 55.62
2023-03-19T08:51:57.157Z, 55.59
2023-03-19T08:52:57.144Z, 55.51
2023-03-19T08:53:57.153Z, 55.47
2023-03-19T08:54:57.172Z, 55.45
2023-03-19T08:55:57.175Z, 55.38
2023-03-19T08:56:57.255Z, 55.27
2023-03-19T08:57:57.227Z, 55.16
2023-03-19T08:58:57.265Z, 55.05
2023-03-19T08:59:57.243Z, 55.09
2023-03-19T09:00:57.249Z, 54.96
2023-03-19T09:01:57.317Z, 54.94
2023-03-19T09:02:57.267Z, 54.97
2023-03-19T09:03:57.272Z, 54.98
2023-03-19T09:04:57.349Z, 54.92
2023-03-19T09:05:57.314Z, 54.91
2023-03-19T09:06:57.313Z, 54.83
2023-03-19T09:07:57.337Z, 54.71
2023-03-19T09:08:57.316Z, 54.62
2023-03-19T09:09:57.399Z, 54.52
2023-03-19T09:10:57.408Z, 54.52
2023-03-19T09:11:57.428Z, 54.41
2023-03-19T09:12:57.403Z, 54.43
2023-03-19T09:13:57.406Z, 54.28
2023-03-19T09:14:57.407Z, 54.24
2023-03-19T09:15:57.472Z, 54.23
2023-03-19T09:16:57.484Z, 54.15
2023-03-19T09:17:57.461Z, 54.07
2023-03-19T09:18:59.405Z, 54.01
2023-03-19T09:19:57.506Z, 53.97
2023-03-19T09:20:57.523Z, 53.82
2023-03-19T09:21:57.499Z, 53.75
2023-03-19T09:22:57.525Z, 53.69
2023-03-19T09:23:57.505Z, 53.61
2023-03-19T09:24:57.532Z, 53.57
2023-03-19T09:25:57.542Z, 53.60
2023-03-19T09:26:57.536Z, 53.52
2023-03-19T09:27:57.559Z, 53.48
2023-03-19T09:28:57.594Z, 53.39
2023-03-19T09:29:57.640Z, 53.34
2023-03-19T09:30:57.620Z, 53.43
2023-03-19T09:31:57.667Z, 53.35
2023-03-19T09:32:57.719Z, 53.15
2023-03-19T09:33:57.707Z, 53.16
2023-03-19T09:34:57.672Z, 53.14
2023-03-19T09:35:57.733Z, 53.13
2023-03-19T09:36:57.684Z, 53.13
2023-03-19T09:37:57.684Z, 53.04
2023-03-19T09:38:57.685Z, 52.92
2023-03-19T09:39:57.732Z, 52.92
2023-03-19T09:40:57.781Z, 52.82
2023-03-19T09:41:57.755Z, 52.81
2023-03-19T09:42:57.762Z, 52.70
2023-03-19T09:43:57.772Z, 52.65
2023-03-19T09:44:57.794Z, 52.69
2023-03-19T09:45:57.794Z, 52.64
2023-03-19T09:46:57.822Z, 52.67
2023-03-19T09:47:57.818Z, 52.61
2023-03-19T09:48:57.805Z, 52.53
2023-03-19T09:49:57.894Z, 52.51
2023-03-19T09:50:57.859Z, 52.49
2023-03-19T09:51:57.936Z, 52.45
2023-03-19T09:52:57.907Z, 52.35
2023-03-19T09:53:57.935Z, 52.31
2023-03-19T09:54:57.951Z, 52.36
2023-03-19T09:55:57.958Z, 52.27
2023-03-19T09:56:57.950Z, 52.29
2023-03-19T09:57:57.936Z, 52.25
2023-03-19T09:58:57.933Z, 52.15
2023-03-19T09:59:57.948Z, 52.14
2023-03-19T10:00:57.945Z, 52.04
2023-03-19T10:01:58.041Z, 51.98
2023-03-19T10:02:57.996Z, 51.92
2023-03-19T10:03:58.053Z, 51.95
2023-03-19T10:04:58.012Z, 51.81
2023-03-19T10:05:58.003Z, 51.85
2023-03-19T10:06:58.022Z, 51.85
2023-03-19T10:07:58.042Z, 51.82
2023-03-19T10:08:58.121Z, 51.74
2023-03-19T10:09:58.122Z, 51.81
2023-03-19T10:10:58.144Z, 51.71
2023-03-19T10:11:58.126Z, 51.67
2023-03-19T10:12:58.123Z, 51.52
2023-03-19T10:13:58.130Z, 51.61
2023-03-19T10:14:58.149Z, 51.70
2023-03-19T10:15:58.242Z, 51.54
2023-03-19T10:16:58.164Z, 51.43
2023-03-19T10:17:58.251Z, 51.45
2023-03-19T10:18:58.583Z, 51.45
2023-03-19T10:19:58.313Z, 51.37
2023-03-19T10:20:58.226Z, 51.33
2023-03-19T10:21:58.244Z, 51.26
2023-03-19T10:22:58.246Z, 51.18
2023-03-19T10:23:58.234Z, 51.17
2023-03-19T10:24:58.262Z, 51.17
2023-03-19T10:25:58.247Z, 51.07
2023-03-19T10:26:58.261Z, 50.96
2023-03-19T10:27:58.256Z, 50.98
2023-03-19T10:28:58.343Z, 50.94
2023-03-19T10:29:58.315Z, 50.82
2023-03-19T10:30:58.382Z, 50.83
2023-03-19T10:31:58.412Z, 50.83
2023-03-19T10:32:58.481Z, 50.71
2023-03-19T10:33:58.382Z, 50.65
2023-03-19T10:34:58.457Z, 50.64
2023-03-19T10:35:58.495Z, 50.53
2023-03-19T10:36:58.466Z, 50.52
2023-03-19T10:37:58.442Z, 50.48
2023-03-19T10:38:58.453Z, 50.49
2023-03-19T10:39:58.498Z, 50.41
2023-03-19T10:40:58.482Z, 50.29
2023-03-19T10:41:58.476Z, 50.24
2023-03-19T10:42:58.477Z, 50.32
2023-03-19T10:43:58.557Z, 50.34
2023-03-19T10:44:58.551Z, 50.26
2023-03-19T10:45:58.577Z, 50.24
2023-03-19T10:46:58.586Z, 50.27
2023-03-19T10:47:58.590Z, 50.19
2023-03-19T10:48:58.571Z, 50.21
2023-03-19T10:49:58.577Z, 50.09
2023-03-19T10:50:58.625Z, 50.11
2023-03-19T10:51:58.611Z, 50.13
2023-03-19T10:52:58.657Z, 50.01
2023-03-19T10:53:58.647Z, 49.98
2023-03-19T10:54:58.691Z, 49.96
2023-03-19T10:55:58.655Z, 49.90
2023-03-19T10:56:58.666Z, 49.93
2023-03-19T10:57:58.655Z, 49.83
2023-03-19T10:58:58.682Z, 49.80
2023-03-19T11:00:00.833Z, 49.72
2023-03-19T11:00:58.897Z, 49.81
2023-03-19T11:01:58.787Z, 51.47
2023-03-19T11:02:58.749Z, 52.35
2023-03-19T11:03:58.936Z, 52.42
2023-03-19T11:04:58.815Z, 52.36
2023-03-19T11:05:58.780Z, 52.25
2023-03-19T11:06:58.791Z, 52.21
2023-03-19T11:07:58.800Z, 52.14
2023-03-19T11:08:58.863Z, 52.02
2023-03-19T11:09:58.881Z, 51.74
2023-03-19T11:10:58.889Z, 51.28
2023-03-19T11:11:58.884Z, 50.78
2023-03-19T11:12:58.938Z, 50.23
2023-03-19T11:13:58.887Z, 49.57
2023-03-19T11:14:58.890Z, 48.84
2023-03-19T11:15:58.884Z, 48.12
2023-03-19T11:16:58.975Z, 47.47
2023-03-19T11:17:58.940Z, 46.80
2023-03-19T11:18:58.912Z, 46.21
2023-03-19T11:19:59.014Z, 45.70
2023-03-19T11:20:58.975Z, 45.25
2023-03-19T11:21:59.020Z, 44.81
2023-03-19T11:22:58.996Z, 44.41
2023-03-19T11:23:59.037Z, 44.08
2023-03-19T11:24:59.040Z, 43.80
2023-03-19T11:25:59.062Z, 43.54
2023-03-19T11:26:59.050Z, 43.34
2023-03-19T11:27:59.052Z, 43.12
2023-03-19T11:28:59.069Z, 42.91
2023-03-19T11:29:59.142Z, 42.77
2023-03-19T11:30:59.092Z, 42.60
2023-03-19T11:32:02.019Z, 42.40
2023-03-19T11:32:59.320Z, 42.34
2023-03-19T11:33:59.156Z, 42.28
2023-03-19T11:34:59.218Z, 42.08
2023-03-19T11:35:59.196Z, 41.86
2023-03-19T11:36:59.209Z, 41.64
2023-03-19T11:37:59.185Z, 41.41
2023-03-19T11:38:59.183Z, 41.24
2023-03-19T11:39:59.194Z, 41.09
2023-03-19T11:40:59.181Z, 40.99
2023-03-19T11:41:59.263Z, 40.90
2023-03-19T11:42:59.231Z, 40.81
2023-03-19T11:43:59.234Z, 40.71
2023-03-19T11:44:59.255Z, 40.61
2023-03-19T11:45:59.305Z, 40.50
2023-03-19T11:46:59.301Z, 40.46
2023-03-19T11:47:59.289Z, 40.42
2023-03-19T11:48:59.358Z, 40.36
2023-03-19T11:49:59.347Z, 40.32
2023-03-19T11:50:59.409Z, 40.24
2023-03-19T11:51:59.379Z, 40.19
2023-03-19T11:52:59.376Z, 40.11
2023-03-19T11:53:59.432Z, 40.05
2023-03-19T11:54:59.569Z, 40.03
2023-03-19T11:55:59.455Z, 39.99
2023-03-19T11:56:59.433Z, 39.90
2023-03-19T11:57:59.483Z, 39.83
2023-03-19T11:58:59.458Z, 39.78
2023-03-19T11:59:59.480Z, 39.72
2023-03-19T12:00:59.469Z, 39.67
2023-03-19T12:01:59.476Z, 39.62
2023-03-19T12:02:59.514Z, 39.57
2023-03-19T12:03:59.560Z, 39.54
2023-03-19T12:04:59.523Z, 39.49
2023-03-19T12:05:59.522Z, 39.43
2023-03-19T12:06:59.550Z, 39.43
2023-03-19T12:07:59.550Z, 39.37
2023-03-19T12:08:59.624Z, 39.33
2023-03-19T12:09:59.596Z, 39.29
2023-03-19T12:10:59.627Z, 39.27
2023-03-19T12:11:59.607Z, 39.27
2023-03-19T12:12:59.657Z, 39.28
2023-03-19T12:13:59.644Z, 39.20
2023-03-19T12:14:59.707Z, 39.16
2023-03-19T12:15:59.756Z, 39.13
2023-03-19T12:16:59.654Z, 39.10
2023-03-19T12:17:59.763Z, 39.08
2023-03-19T12:18:59.712Z, 39.06
2023-03-19T12:19:59.772Z, 39.08
2023-03-19T12:20:59.757Z, 39.04
2023-03-19T12:21:59.790Z, 38.97
2023-03-19T12:22:59.772Z, 39.03
2023-03-19T12:23:59.862Z, 38.99
2023-03-19T12:24:59.815Z, 38.94
2023-03-19T12:25:59.856Z, 38.92
2023-03-19T12:26:59.832Z, 38.88
2023-03-19T12:27:59.879Z, 38.91
2023-03-19T12:28:59.889Z, 38.93